Time;durP1;ratioP1;P1;durP2;ratioP2;P2;SDS_P1;SDS_P2;PMS_P1;PMS_P2;Temp;Humidity;BMP_temperature;BMP_pressure;BME280_temperature;BME280_humidity;BME280_pressure;Samples;Min_cycle;Max_cycle;Signal;HPM_P1;HPM_P2
2023/12/18 00:00:04;;;;;;;29.17;20.00;;;;;;;;;;5076746;28;20395;-80
2023/12/18 00:02:29;;;;;;;33.90;20.63;;;;;;;;;;5054886;28;20409;-79
2023/12/18 00:04:55;;;;;;;33.47;20.52;;;;;;;;;;5056192;28;20393;-79
2023/12/18 00:07:21;;;;;;;31.85;20.85;;;;;;;;;;5055677;28;20417;-79
2023/12/18 00:09:50;;;;;;;33.83;20.38;;;;;;;;;;5056045;28;20932;-79
2023/12/18 00:12:16;;;;;;;32.15;20.05;;;;;;;;;;5055950;28;20381;-79
2023/12/18 00:14:42;;;;;;;34.30;20.67;;;;;;;;;;5056474;28;20890;-79
2023/12/18 00:17:08;;;;;;;33.70;21.50;;;;;;;;;;5055830;28;20381;-79
2023/12/18 00:19:34;;;;;;;31.98;21.25;;;;;;;;;;5055773;28;20435;-79
2023/12/18 00:22:01;;;;;;;35.80;21.80;;;;;;;;;;5055430;28;20393;-79
2023/12/18 00:24:27;;;;;;;31.40;20.58;;;;;;;;;;5055362;28;20383;-79
2023/12/18 00:26:53;;;;;;;29.35;20.02;;;;;;;;;;5055607;28;20770;-80
2023/12/18 00:29:19;;;;;;;30.25;19.80;;;;;;;;;;5055543;28;20381;-79
2023/12/18 00:31:45;;;;;;;28.03;18.87;;;;;;;;;;5055563;28;20705;-80
2023/12/18 00:34:11;;;;;;;26.45;18.08;;;;;;;;;;5055761;28;20456;-79
2023/12/18 00:36:37;;;;;;;25.48;18.10;;;;;;;;;;5055521;28;20413;-79
2023/12/18 00:39:03;;;;;;;32.33;20.60;;;;;;;;;;5055572;28;20393;-79
2023/12/18 00:41:29;;;;;;;34.47;20.97;;;;;;;;;;5056380;28;20854;-79
2023/12/18 00:43:55;;;;;;;30.63;20.38;;;;;;;;;;5056324;28;20396;-79
2023/12/18 00:46:21;;;;;;;30.80;20.48;;;;;;;;;;5055598;28;20917;-79
2023/12/18 00:48:47;;;;;;;36.33;22.55;;;;;;;;;;5055688;28;20878;-79
2023/12/18 00:51:13;;;;;;;33.80;21.55;;;;;;;;;;5055800;28;20380;-79
2023/12/18 00:53:39;;;;;;;31.58;20.98;;;;;;;;;;5056061;28;20384;-79
2023/12/18 00:56:05;;;;;;;27.77;19.08;;;;;;;;;;5056288;28;20389;-79
2023/12/18 00:58:31;;;;;;;31.58;20.90;;;;;;;;;;5055432;28;20373;-80
2023/12/18 01:00:57;;;;;;;32.35;20.73;;;;;;;;;;5054149;28;20878;-79
2023/12/18 01:03:23;;;;;;;31.92;20.25;;;;;;;;;;5055353;28;20374;-79
2023/12/18 01:05:49;;;;;;;28.10;19.23;;;;;;;;;;5055009;28;20384;-80
2023/12/18 01:08:15;;;;;;;29.80;19.40;;;;;;;;;;5054977;28;20852;-80
2023/12/18 01:10:41;;;;;;;26.80;18.15;;;;;;;;;;5055298;28;20382;-79
2023/12/18 01:13:07;;;;;;;28.50;20.08;;;;;;;;;;5055619;28;20389;-80
2023/12/18 01:15:33;;;;;;;28.98;19.48;;;;;;;;;;5058505;28;20924;-79
2023/12/18 01:17:59;;;;;;;32.20;20.60;;;;;;;;;;5059447;28;20416;-79
2023/12/18 01:20:25;;;;;;;28.77;19.63;;;;;;;;;;5059732;28;20401;-79
2023/12/18 01:22:51;;;;;;;27.92;18.95;;;;;;;;;;5063651;28;20387;-80
2023/12/18 01:25:17;;;;;;;30.40;20.33;;;;;;;;;;5075867;28;20857;-79
2023/12/18 01:27:43;;;;;;;26.52;18.67;;;;;;;;;;5059290;28;20401;-79
2023/12/18 01:30:09;;;;;;;28.17;19.50;;;;;;;;;;5059709;28;20369;-80
2023/12/18 01:32:35;;;;;;;31.63;20.73;;;;;;;;;;5059396;28;20385;-79
2023/12/18 01:35:01;;;;;;;27.60;19.57;;;;;;;;;;5059420;28;20447;-79
2023/12/18 01:37:28;;;;;;;28.42;18.48;;;;;;;;;;5059161;28;20401;-79
2023/12/18 01:39:54;;;;;;;28.90;19.67;;;;;;;;;;5059063;28;20754;-80
2023/12/18 01:42:20;;;;;;;27.73;19.75;;;;;;;;;;5058793;28;20458;-79
2023/12/18 01:44:48;;;;;;;28.80;19.17;;;;;;;;;;5058935;28;20385;-79
2023/12/18 01:47:14;;;;;;;28.80;19.08;;;;;;;;;;5058934;28;21220;-80
2023/12/18 01:49:40;;;;;;;29.07;19.97;;;;;;;;;;5059152;28;20390;-79
2023/12/18 01:52:09;;;;;;;29.35;19.60;;;;;;;;;;5058987;28;20388;-79
2023/12/18 01:54:35;;;;;;;29.33;19.80;;;;;;;;;;5058329;28;20946;-79
2023/12/18 01:57:01;;;;;;;25.50;18.80;;;;;;;;;;5059043;28;20388;-79
2023/12/18 01:59:28;;;;;;;29.02;19.70;;;;;;;;;;5068947;28;20389;-79
2023/12/18 02:01:54;;;;;;;25.48;17.83;;;;;;;;;;5058074;28;20450;-79
2023/12/18 02:04:21;;;;;;;22.67;17.03;;;;;;;;;;5058235;28;20443;-79
2023/12/18 02:06:47;;;;;;;20.85;16.40;;;;;;;;;;5058163;28;20405;-79
2023/12/18 02:09:15;;;;;;;21.13;16.45;;;;;;;;;;5071102;28;20387;-79
2023/12/18 02:11:45;;;;;;;20.15;16.10;;;;;;;;;;5077658;28;20376;-79
2023/12/18 02:14:10;;;;;;;21.33;16.20;;;;;;;;;;5078512;28;20404;-79
2023/12/18 02:16:36;;;;;;;21.17;16.90;;;;;;;;;;5078689;28;20460;-79
2023/12/18 02:19:02;;;;;;;23.52;17.70;;;;;;;;;;5078949;28;20469;-80
2023/12/18 02:21:28;;;;;;;26.75;17.80;;;;;;;;;;5079233;28;20429;-79
2023/12/18 02:23:54;;;;;;;27.60;18.88;;;;;;;;;;5078337;28;20421;-79
2023/12/18 02:26:21;;;;;;;28.97;20.13;;;;;;;;;;5077440;28;20415;-79
2023/12/18 02:28:47;;;;;;;24.57;17.70;;;;;;;;;;5078217;28;20378;-79
2023/12/18 02:31:14;;;;;;;25.80;18.00;;;;;;;;;;5078528;28;20372;-79
2023/12/18 02:33:40;;;;;;;27.73;18.65;;;;;;;;;;5077651;28;20430;-79
2023/12/18 02:36:07;;;;;;;28.67;17.95;;;;;;;;;;5078258;28;20375;-79
2023/12/18 02:38:33;;;;;;;24.27;17.48;;;;;;;;;;5077850;28;20371;-79
2023/12/18 02:40:59;;;;;;;27.13;18.90;;;;;;;;;;5060119;28;20429;-79
2023/12/18 02:43:25;;;;;;;25.85;17.95;;;;;;;;;;5078636;28;20398;-79
2023/12/18 02:45:51;;;;;;;23.77;17.88;;;;;;;;;;5077839;28;20383;-79
2023/12/18 02:48:17;;;;;;;23.10;17.05;;;;;;;;;;5077212;28;20412;-79
2023/12/18 02:50:43;;;;;;;24.33;17.57;;;;;;;;;;5077447;28;20400;-80
2023/12/18 02:53:09;;;;;;;24.40;16.98;;;;;;;;;;5077661;28;20411;-80
2023/12/18 02:55:35;;;;;;;21.95;15.82;;;;;;;;;;5077841;28;20386;-79
2023/12/18 02:58:01;;;;;;;20.67;15.98;;;;;;;;;;5077046;28;20395;-80
2023/12/18 03:00:27;;;;;;;19.63;16.27;;;;;;;;;;5066194;28;20448;-80
2023/12/18 03:02:53;;;;;;;20.57;15.90;;;;;;;;;;5057360;28;20385;-80
2023/12/18 03:05:19;;;;;;;20.88;16.10;;;;;;;;;;5057471;28;20389;-79
2023/12/18 03:07:45;;;;;;;21.08;15.98;;;;;;;;;;5057332;28;20407;-80
2023/12/18 03:10:11;;;;;;;25.95;17.60;;;;;;;;;;5057391;28;20384;-80
2023/12/18 03:12:37;;;;;;;24.00;17.17;;;;;;;;;;5056891;28;20405;-80
2023/12/18 03:15:03;;;;;;;22.88;16.77;;;;;;;;;;5057083;28;20457;-80
2023/12/18 03:17:29;;;;;;;22.80;17.30;;;;;;;;;;5039312;28;20385;-80
2023/12/18 03:19:55;;;;;;;22.92;16.83;;;;;;;;;;5056832;28;20390;-79
2023/12/18 03:22:21;;;;;;;23.60;17.35;;;;;;;;;;5057326;28;20384;-79
2023/12/18 03:24:47;;;;;;;23.87;17.17;;;;;;;;;;5056588;28;20743;-79
2023/12/18 03:27:13;;;;;;;24.13;17.38;;;;;;;;;;5057126;28;20409;-79
2023/12/18 03:29:39;;;;;;;22.70;17.00;;;;;;;;;;5059388;28;20381;-80
2023/12/18 03:32:06;;;;;;;24.70;17.25;;;;;;;;;;5076054;28;20384;-79
2023/12/18 03:34:31;;;;;;;27.25;19.05;;;;;;;;;;5076903;28;20517;-79
2023/12/18 03:37:00;;;;;;;27.60;18.98;;;;;;;;;;5075646;28;20853;-80
2023/12/18 03:39:26;;;;;;;24.20;17.00;;;;;;;;;;5077129;28;20883;-79
2023/12/18 03:41:52;;;;;;;26.45;18.30;;;;;;;;;;5076866;28;20379;-79
2023/12/18 03:44:18;;;;;;;26.60;18.50;;;;;;;;;;5076514;28;20438;-79
2023/12/18 03:46:44;;;;;;;24.38;17.75;;;;;;;;;;5076798;28;20463;-80
2023/12/18 03:49:10;;;;;;;24.17;17.15;;;;;;;;;;5076655;28;20446;-79
2023/12/18 03:51:36;;;;;;;22.83;16.98;;;;;;;;;;5076266;28;20379;-80
2023/12/18 03:54:02;;;;;;;23.50;17.75;;;;;;;;;;5077001;28;20376;-79
2023/12/18 03:56:28;;;;;;;25.58;18.00;;;;;;;;;;5076735;28;20746;-79
2023/12/18 03:58:54;;;;;;;26.45;18.70;;;;;;;;;;5076412;28;20384;-80
2023/12/18 04:01:20;;;;;;;26.40;17.88;;;;;;;;;;5076637;28;20383;-80
2023/12/18 04:03:46;;;;;;;24.70;17.90;;;;;;;;;;5076171;28;20387;-79
2023/12/18 04:06:12;;;;;;;28.37;19.40;;;;;;;;;;5076261;28;20387;-80
2023/12/18 04:08:39;;;;;;;31.13;20.45;;;;;;;;;;5076773;28;20376;-79
2023/12/18 04:11:05;;;;;;;27.02;19.30;;;;;;;;;;5075858;28;20382;-80
2023/12/18 04:13:31;;;;;;;27.13;18.85;;;;;;;;;;5076351;28;20930;-79
2023/12/18 04:15:57;;;;;;;24.20;17.55;;;;;;;;;;5075991;28;20410;-80
2023/12/18 04:18:23;;;;;;;28.40;18.77;;;;;;;;;;5076608;28;20403;-80
2023/12/18 04:20:49;;;;;;;28.10;19.38;;;;;;;;;;5075709;28;20375;-80
2023/12/18 04:23:15;;;;;;;27.30;19.25;;;;;;;;;;5076211;28;20922;-79
2023/12/18 04:25:41;;;;;;;31.77;19.50;;;;;;;;;;5075898;28;20372;-79
2023/12/18 04:28:07;;;;;;;25.45;18.58;;;;;;;;;;5075539;28;20480;-79
2023/12/18 04:30:33;;;;;;;30.25;20.20;;;;;;;;;;5076018;28;20456;-79
2023/12/18 04:32:59;;;;;;;29.35;20.05;;;;;;;;;;5076168;28;20403;-80
2023/12/18 04:35:25;;;;;;;29.33;19.43;;;;;;;;;;5075047;28;20383;-79
2023/12/18 04:37:51;;;;;;;25.50;18.10;;;;;;;;;;5076111;28;20382;-80
2023/12/18 04:40:17;;;;;;;25.67;18.17;;;;;;;;;;5075590;28;20718;-80
2023/12/18 04:42:43;;;;;;;25.23;18.10;;;;;;;;;;5075767;28;20395;-80
2023/12/18 04:45:09;;;;;;;24.52;17.63;;;;;;;;;;5075735;28;20422;-80
2023/12/18 04:47:35;;;;;;;24.83;18.02;;;;;;;;;;5075874;28;20427;-80
2023/12/18 04:50:01;;;;;;;25.03;17.60;;;;;;;;;;5075209;28;20401;-80
2023/12/18 04:52:27;;;;;;;30.52;19.65;;;;;;;;;;5076185;28;20403;-80
2023/12/18 04:54:53;;;;;;;27.38;19.40;;;;;;;;;;5075696;28;20372;-80
2023/12/18 04:57:19;;;;;;;26.60;18.58;;;;;;;;;;5075604;28;20462;-80
2023/12/18 04:59:45;;;;;;;26.27;18.23;;;;;;;;;;5075977;28;20383;-80
2023/12/18 05:02:11;;;;;;;28.02;18.50;;;;;;;;;;5076201;28;20453;-80
2023/12/18 05:04:37;;;;;;;26.95;18.17;;;;;;;;;;5075747;28;20380;-80
2023/12/18 05:07:03;;;;;;;25.27;17.80;;;;;;;;;;5075538;28;20407;-80
2023/12/18 05:09:29;;;;;;;25.08;18.02;;;;;;;;;;5057931;28;20742;-80
2023/12/18 05:11:55;;;;;;;26.55;18.67;;;;;;;;;;5075802;28;20865;-80
2023/12/18 05:14:21;;;;;;;25.88;18.70;;;;;;;;;;5075756;28;20387;-80
2023/12/18 05:16:47;;;;;;;30.17;19.38;;;;;;;;;;5075601;28;20379;-79
2023/12/18 05:19:16;;;;;;;26.05;18.25;;;;;;;;;;5075366;28;20865;-80
2023/12/18 05:21:42;;;;;;;27.40;19.60;;;;;;;;;;5075436;28;20875;-80
2023/12/18 05:24:09;;;;;;;26.87;18.50;;;;;;;;;;5075222;28;20436;-79
2023/12/18 05:26:35;;;;;;;25.75;18.02;;;;;;;;;;5075275;28;20408;-79
2023/12/18 05:29:01;;;;;;;24.42;18.15;;;;;;;;;;5075225;28;20380;-80
2023/12/18 05:31:27;;;;;;;24.10;18.05;;;;;;;;;;5075492;28;20374;-80
2023/12/18 05:33:53;;;;;;;22.20;16.63;;;;;;;;;;5075423;28;20431;-80
2023/12/18 05:36:19;;;;;;;23.20;16.55;;;;;;;;;;5075757;28;20421;-80
2023/12/18 05:38:45;;;;;;;22.47;16.90;;;;;;;;;;5062607;28;20381;-80
2023/12/18 05:41:11;;;;;;;23.13;17.02;;;;;;;;;;5055369;28;20980;-80
2023/12/18 05:43:37;;;;;;;23.02;16.48;;;;;;;;;;5055522;28;20385;-80
2023/12/18 05:46:03;;;;;;;24.50;16.87;;;;;;;;;;5055508;28;20385;-80
2023/12/18 05:48:29;;;;;;;24.67;17.00;;;;;;;;;;5055170;28;20409;-80
2023/12/18 05:50:55;;;;;;;26.47;17.97;;;;;;;;;;5055546;28;20393;-80
2023/12/18 05:53:21;;;;;;;26.67;18.55;;;;;;;;;;5055819;28;20941;-80
2023/12/18 05:55:47;;;;;;;25.05;17.05;;;;;;;;;;5054865;28;20369;-80
2023/12/18 05:58:13;;;;;;;24.95;17.40;;;;;;;;;;5054994;28;20411;-79
2023/12/18 06:00:39;;;;;;;23.98;17.50;;;;;;;;;;5056451;28;20389;-79
2023/12/18 06:03:05;;;;;;;24.33;17.00;;;;;;;;;;5058267;28;21138;-80
2023/12/18 06:05:30;;;;;;;24.30;16.70;;;;;;;;;;5070154;28;20474;-79
2023/12/18 06:07:57;;;;;;;24.83;17.48;;;;;;;;;;5078549;28;20411;-80
2023/12/18 06:10:23;;;;;;;24.63;17.35;;;;;;;;;;5078305;28;20472;-80
2023/12/18 06:12:51;;;;;;;25.35;17.50;;;;;;;;;;5078592;28;20376;-80
2023/12/18 06:15:17;;;;;;;24.05;16.95;;;;;;;;;;5077837;28;20781;-79
2023/12/18 06:17:43;;;;;;;24.80;16.92;;;;;;;;;;5077546;28;20395;-79
2023/12/18 06:20:09;;;;;;;24.13;17.25;;;;;;;;;;5077765;28;20410;-80
2023/12/18 06:22:35;;;;;;;21.67;16.15;;;;;;;;;;5078113;28;20433;-80
2023/12/18 06:25:03;;;;;;;23.75;16.75;;;;;;;;;;5078170;28;20388;-80
2023/12/18 06:27:29;;;;;;;20.60;16.15;;;;;;;;;;5077054;28;20426;-80
2023/12/18 06:29:55;;;;;;;21.80;16.17;;;;;;;;;;5077738;28;20372;-80
2023/12/18 06:32:21;;;;;;;25.25;17.63;;;;;;;;;;5077286;28;20925;-80
2023/12/18 06:34:47;;;;;;;21.08;16.00;;;;;;;;;;5077205;28;20380;-80
2023/12/18 06:37:13;;;;;;;22.90;16.95;;;;;;;;;;5077745;28;20463;-80
2023/12/18 06:39:39;;;;;;;24.48;17.50;;;;;;;;;;5077795;28;20387;-80
2023/12/18 06:42:05;;;;;;;24.90;16.75;;;;;;;;;;5077119;28;20900;-80
2023/12/18 06:44:31;;;;;;;23.60;16.40;;;;;;;;;;5077612;28;20379;-80
2023/12/18 06:46:57;;;;;;;23.33;16.55;;;;;;;;;;5076564;28;20871;-80
2023/12/18 06:49:23;;;;;;;21.53;15.33;;;;;;;;;;5077099;28;20418;-80
2023/12/18 06:51:50;;;;;;;23.40;17.27;;;;;;;;;;5076897;28;20380;-80
2023/12/18 06:54:16;;;;;;;25.03;17.03;;;;;;;;;;5077635;28;20377;-80
2023/12/18 06:56:42;;;;;;;23.73;17.08;;;;;;;;;;5078173;28;20464;-80
2023/12/18 06:59:08;;;;;;;21.17;16.70;;;;;;;;;;5077851;28;20411;-80
2023/12/18 07:01:34;;;;;;;21.67;16.58;;;;;;;;;;5076605;28;20399;-80
2023/12/18 07:04:02;;;;;;;21.50;16.15;;;;;;;;;;5077280;28;20482;-80
2023/12/18 07:06:28;;;;;;;20.58;15.80;;;;;;;;;;5076975;28;20440;-80
2023/12/18 07:08:54;;;;;;;19.60;15.80;;;;;;;;;;5076971;28;20440;-80
2023/12/18 07:11:20;;;;;;;20.35;15.75;;;;;;;;;;5077379;28;20376;-80
2023/12/18 07:13:46;;;;;;;19.73;15.23;;;;;;;;;;5076882;28;20371;-80
2023/12/18 07:16:19;;;;;;;18.52;14.68;;;;;;;;;;5076710;28;20372;-80
2023/12/18 07:18:45;;;;;;;20.15;15.45;;;;;;;;;;5076082;28;20428;-80
2023/12/18 07:21:11;;;;;;;20.73;15.35;;;;;;;;;;5058472;28;20475;-80
2023/12/18 07:23:37;;;;;;;22.38;16.33;;;;;;;;;;5076557;28;20387;-80
2023/12/18 07:26:03;;;;;;;21.95;16.52;;;;;;;;;;5076292;28;20457;-81
2023/12/18 07:28:29;;;;;;;20.83;15.98;;;;;;;;;;5076445;28;20723;-80
2023/12/18 07:30:55;;;;;;;19.88;15.00;;;;;;;;;;5076777;28;20394;-80
2023/12/18 07:33:21;;;;;;;21.38;15.38;;;;;;;;;;5077296;28;20380;-80
2023/12/18 07:35:47;;;;;;;22.98;16.23;;;;;;;;;;5078332;28;20424;-80
2023/12/18 07:38:13;;;;;;;20.73;16.33;;;;;;;;;;5070581;28;20381;-81
2023/12/18 07:40:39;;;;;;;19.70;15.25;;;;;;;;;;5056174;28;20388;-80
2023/12/18 07:43:05;;;;;;;20.93;16.03;;;;;;;;;;5055837;28;20480;-80
2023/12/18 07:45:31;;;;;;;18.05;14.43;;;;;;;;;;5056229;28;20382;-80
2023/12/18 07:47:57;;;;;;;20.85;15.50;;;;;;;;;;5037527;28;20417;-80
2023/12/18 07:50:23;;;;;;;20.27;15.73;;;;;;;;;;5056652;28;20365;-81
2023/12/18 07:52:49;;;;;;;22.27;15.27;;;;;;;;;;5056353;28;20378;-81
2023/12/18 07:55:15;;;;;;;18.48;14.63;;;;;;;;;;5056737;28;20393;-81
2023/12/18 07:57:42;;;;;;;20.98;15.77;;;;;;;;;;5057982;28;20385;-81
2023/12/18 08:00:08;;;;;;;21.48;15.50;;;;;;;;;;5065096;28;20385;-81
2023/12/18 08:02:34;;;;;;;20.50;15.60;;;;;;;;;;5056159;28;20445;-81
2023/12/18 08:05:00;;;;;;;19.73;15.32;;;;;;;;;;5056139;28;20381;-81
2023/12/18 08:07:26;;;;;;;21.73;16.13;;;;;;;;;;5055822;28;20408;-81
2023/12/18 08:09:52;;;;;;;20.85;15.80;;;;;;;;;;5055829;28;20722;-81
2023/12/18 08:12:18;;;;;;;20.05;14.93;;;;;;;;;;5056190;28;20373;-81
2023/12/18 08:14:44;;;;;;;20.38;16.02;;;;;;;;;;5067212;28;20376;-81
2023/12/18 08:17:14;;;;;;;20.63;15.80;;;;;;;;;;5076191;28;20383;-81
2023/12/18 08:19:45;;;;;;;18.10;14.90;;;;;;;;;;5076033;28;20383;-81
2023/12/18 08:22:11;;;;;;;19.63;14.93;;;;;;;;;;5076778;28;20450;-81
2023/12/18 08:24:37;;;;;;;19.88;15.13;;;;;;;;;;5075395;28;20895;-81
2023/12/18 08:27:03;;;;;;;23.92;17.25;;;;;;;;;;5076335;28;20408;-82
2023/12/18 08:29:29;;;;;;;21.23;15.88;;;;;;;;;;5075809;28;20398;-82
2023/12/18 08:31:55;;;;;;;25.95;17.60;;;;;;;;;;5075048;28;20404;-82
2023/12/18 08:34:21;;;;;;;20.60;15.83;;;;;;;;;;5075418;28;20422;-82
2023/12/18 08:36:47;;;;;;;20.98;15.95;;;;;;;;;;5075244;28;20383;-81
2023/12/18 08:39:13;;;;;;;19.65;15.90;;;;;;;;;;5075571;28;20810;-81
2023/12/18 08:41:41;;;;;;;20.55;16.17;;;;;;;;;;5075888;28;20394;-81
2023/12/18 08:44:08;;;;;;;21.93;16.13;;;;;;;;;;5075476;28;20384;-81
2023/12/18 08:46:34;;;;;;;20.52;15.55;;;;;;;;;;5074999;28;20445;-81
2023/12/18 08:49:00;;;;;;;20.63;15.52;;;;;;;;;;5075495;28;20418;-81
2023/12/18 08:51:26;;;;;;;20.17;15.38;;;;;;;;;;5075629;28;20410;-81
2023/12/18 08:53:54;;;;;;;20.63;15.40;;;;;;;;;;5075372;28;20447;-81
2023/12/18 08:56:20;;;;;;;21.75;16.35;;;;;;;;;;5074869;28;20892;-81
2023/12/18 08:58:46;;;;;;;21.17;16.05;;;;;;;;;;5075338;28;20383;-81
2023/12/18 09:01:12;;;;;;;23.17;16.38;;;;;;;;;;5075549;28;20379;-81
2023/12/18 09:03:38;;;;;;;25.77;18.08;;;;;;;;;;5075369;28;20734;-81
2023/12/18 09:06:04;;;;;;;26.55;18.15;;;;;;;;;;5074733;28;20416;-81
2023/12/18 09:08:39;;;;;;;28.77;18.88;;;;;;;;;;5074337;28;20490;-81
2023/12/18 09:11:09;;;;;;;29.42;19.67;;;;;;;;;;5075352;28;20879;-81
2023/12/18 09:13:38;;;;;;;29.08;18.95;;;;;;;;;;5075797;28;20379;-82
2023/12/18 09:16:05;;;;;;;30.17;19.38;;;;;;;;;;5075443;28;20769;-82
2023/12/18 09:18:31;;;;;;;27.20;18.38;;;;;;;;;;5075939;28;20395;-82
2023/12/18 09:20:57;;;;;;;29.17;18.38;;;;;;;;;;5075549;28;20395;-81
2023/12/18 09:23:23;;;;;;;25.23;17.20;;;;;;;;;;5075112;28;20808;-82
2023/12/18 09:25:49;;;;;;;24.40;17.17;;;;;;;;;;5074888;28;20384;-81
2023/12/18 09:28:15;;;;;;;22.55;15.52;;;;;;;;;;5075145;28;20434;-81
2023/12/18 09:30:42;;;;;;;20.08;15.23;;;;;;;;;;5074801;28;20737;-82
2023/12/18 09:33:08;;;;;;;19.60;15.02;;;;;;;;;;5075256;28;20384;-82
2023/12/18 09:35:34;;;;;;;22.42;16.20;;;;;;;;;;5066856;28;20747;-82
2023/12/18 09:38:00;;;;;;;19.13;15.18;;;;;;;;;;5059729;28;20386;-82
2023/12/18 09:40:26;;;;;;;20.70;15.17;;;;;;;;;;5058736;28;20473;-82
2023/12/18 09:42:53;;;;;;;18.63;15.15;;;;;;;;;;5058541;28;20382;-82
2023/12/18 09:45:23;;;;;;;19.77;15.52;;;;;;;;;;5058663;28;20388;-82
2023/12/18 09:47:58;;;;;;;24.45;16.63;;;;;;;;;;5058406;28;20417;-81
2023/12/18 09:50:24;;;;;;;26.45;18.02;;;;;;;;;;5058488;28;20440;-81
2023/12/18 09:53:03;;;;;;;29.45;18.75;;;;;;;;;;5058311;28;20469;-81
2023/12/18 09:55:32;;;;;;;30.17;19.50;;;;;;;;;;5058062;28;20380;-81
2023/12/18 09:58:00;;;;;;;33.47;20.13;;;;;;;;;;5057649;28;20380;-81
2023/12/18 10:00:26;;;;;;;31.05;19.33;;;;;;;;;;5058329;28;20737;-81
2023/12/18 10:02:53;;;;;;;30.98;19.60;;;;;;;;;;5058214;28;20377;-81
2023/12/18 10:05:19;;;;;;;27.90;19.15;;;;;;;;;;5057250;28;20402;-81
2023/12/18 10:07:45;;;;;;;25.73;17.52;;;;;;;;;;5058249;28;20967;-82
2023/12/18 10:10:11;;;;;;;24.95;18.23;;;;;;;;;;5057864;28;20390;-82
2023/12/18 10:12:40;;;;;;;26.37;18.50;;;;;;;;;;5058289;28;20719;-82
2023/12/18 10:15:07;;;;;;;28.33;17.98;;;;;;;;;;5060443;28;20752;-82
2023/12/18 10:17:33;;;;;;;29.70;19.27;;;;;;;;;;5077716;28;20386;-82
2023/12/18 10:20:02;;;;;;;35.63;20.52;;;;;;;;;;5078015;28;20411;-80
2023/12/18 10:22:28;;;;;;;36.17;20.35;;;;;;;;;;5077600;28;20410;-80
2023/12/18 10:24:57;;;;;;;34.10;19.60;;;;;;;;;;5077430;28;20379;-81
2023/12/18 10:27:23;;;;;;;29.07;19.27;;;;;;;;;;5077347;28;20873;-80
2023/12/18 10:29:49;;;;;;;29.70;18.80;;;;;;;;;;5078185;28;20714;-80
2023/12/18 10:32:15;;;;;;;34.28;19.98;;;;;;;;;;5077208;28;21072;-80
2023/12/18 10:34:41;;;;;;;31.02;19.15;;;;;;;;;;5077336;28;20450;-80
2023/12/18 10:37:08;;;;;;;26.38;17.63;;;;;;;;;;5077210;28;20437;-80
2023/12/18 10:39:37;;;;;;;24.42;16.80;;;;;;;;;;5077493;28;20394;-80
2023/12/18 10:42:06;;;;;;;25.48;17.67;;;;;;;;;;5077687;28;20409;-81
2023/12/18 10:44:32;;;;;;;23.83;17.07;;;;;;;;;;5078065;28;20388;-81
2023/12/18 10:46:59;;;;;;;25.08;17.70;;;;;;;;;;5077375;28;20449;-81
2023/12/18 10:49:28;;;;;;;24.65;16.60;;;;;;;;;;5077634;28;20399;-81
2023/12/18 10:51:55;;;;;;;21.45;15.20;;;;;;;;;;5077928;28;20368;-81
2023/12/18 10:54:21;;;;;;;24.13;16.10;;;;;;;;;;5077641;28;20380;-81
2023/12/18 10:56:48;;;;;;;22.13;15.97;;;;;;;;;;5077378;28;20387;-81
2023/12/18 10:59:14;;;;;;;19.17;14.77;;;;;;;;;;5077501;28;20387;-81
2023/12/18 11:01:41;;;;;;;18.85;13.85;;;;;;;;;;5077777;28;20388;-81
2023/12/18 11:04:07;;;;;;;18.75;14.40;;;;;;;;;;5077503;28;20467;-81
2023/12/18 11:06:33;;;;;;;16.30;13.70;;;;;;;;;;5077798;28;20407;-81
2023/12/18 11:08:59;;;;;;;16.13;13.38;;;;;;;;;;5078151;28;20390;-81
2023/12/18 11:11:26;;;;;;;16.77;14.27;;;;;;;;;;5078479;28;20810;-81
2023/12/18 11:13:57;;;;;;;17.93;13.43;;;;;;;;;;5077822;28;20795;-81
2023/12/18 11:16:23;;;;;;;16.05;13.35;;;;;;;;;;5077677;28;20844;-81
2023/12/18 11:18:52;;;;;;;15.77;12.73;;;;;;;;;;5077305;28;20399;-81
2023/12/18 11:21:18;;;;;;;17.70;14.02;;;;;;;;;;5077852;28;20368;-81
2023/12/18 11:23:44;;;;;;;15.93;13.68;;;;;;;;;;5077573;28;20438;-81
2023/12/18 11:26:10;;;;;;;18.85;14.73;;;;;;;;;;5076696;28;20411;-81
2023/12/18 11:28:37;;;;;;;21.33;16.70;;;;;;;;;;5058001;28;20459;-81
2023/12/18 11:31:05;;;;;;;19.42;14.80;;;;;;;;;;5056691;28;20392;-82
2023/12/18 11:33:31;;;;;;;18.25;14.75;;;;;;;;;;5056742;28;20752;-80
2023/12/18 11:35:57;;;;;;;20.40;15.43;;;;;;;;;;5039184;28;20394;-80
2023/12/18 11:38:24;;;;;;;21.98;16.10;;;;;;;;;;5060550;28;20402;-80
2023/12/18 11:40:50;;;;;;;23.65;16.50;;;;;;;;;;5075555;28;20404;-80
2023/12/18 11:43:38;;;;;;;25.73;17.00;;;;;;;;;;5076848;28;20391;-80
2023/12/18 11:46:05;;;;;;;25.38;17.25;;;;;;;;;;5077361;28;20396;-80
2023/12/18 11:48:32;;;;;;;23.13;16.00;;;;;;;;;;5077181;28;20418;-80
2023/12/18 11:50:58;;;;;;;21.75;15.93;;;;;;;;;;5076956;28;20872;-81
2023/12/18 11:53:24;;;;;;;22.55;16.25;;;;;;;;;;5076450;28;20382;-81
2023/12/18 11:55:50;;;;;;;19.75;16.13;;;;;;;;;;5077361;28;20471;-80
2023/12/18 11:58:18;;;;;;;20.30;15.70;;;;;;;;;;5075907;28;20745;-80
2023/12/18 12:00:45;;;;;;;20.08;15.63;;;;;;;;;;5077156;28;20383;-81
2023/12/18 12:03:12;;;;;;;25.55;17.23;;;;;;;;;;5077184;28;20887;-81
2023/12/18 12:05:39;;;;;;;24.27;17.15;;;;;;;;;;5076642;28;20391;-80
2023/12/18 12:08:05;;;;;;;25.80;17.48;;;;;;;;;;5077175;28;20908;-80
2023/12/18 12:10:39;;;;;;;26.88;18.48;;;;;;;;;;5076736;28;20375;-81
2023/12/18 12:13:05;;;;;;;31.23;19.55;;;;;;;;;;5077328;28;20383;-80
2023/12/18 12:15:31;;;;;;;28.43;18.53;;;;;;;;;;5077292;28;20379;-80
2023/12/18 12:18:07;;;;;;;31.55;19.73;;;;;;;;;;5076124;28;20388;-80
2023/12/18 12:20:33;;;;;;;31.02;19.70;;;;;;;;;;5076584;28;20399;-80
2023/12/18 12:22:59;;;;;;;29.85;19.50;;;;;;;;;;5077035;28;20875;-80
2023/12/18 12:25:25;;;;;;;81.80;39.45;;;;;;;;;;5076871;28;20443;-81
2023/12/18 12:27:52;;;;;;;27.38;19.10;;;;;;;;;;5076891;28;20404;-81
2023/12/18 12:30:18;;;;;;;27.87;18.70;;;;;;;;;;5076506;28;20383;-81
2023/12/18 12:32:46;;;;;;;30.10;18.52;;;;;;;;;;5077368;28;20872;-81
2023/12/18 12:35:15;;;;;;;28.73;18.73;;;;;;;;;;5077066;28;20458;-80
2023/12/18 12:37:41;;;;;;;27.20;17.83;;;;;;;;;;5076360;28;20895;-80
2023/12/18 12:40:08;;;;;;;30.17;19.23;;;;;;;;;;5076228;28;20418;-81
2023/12/18 12:42:35;;;;;;;25.55;16.92;;;;;;;;;;5076027;28;20375;-80
2023/12/18 12:45:01;;;;;;;26.08;17.25;;;;;;;;;;5076212;28;20489;-81
2023/12/18 12:47:27;;;;;;;22.60;16.38;;;;;;;;;;5076675;28;20478;-81
2023/12/18 12:49:53;;;;;;;22.47;16.07;;;;;;;;;;5075845;28;20378;-81
2023/12/18 12:52:19;;;;;;;18.70;15.13;;;;;;;;;;5076161;28;20447;-81
2023/12/18 12:54:45;;;;;;;18.33;14.20;;;;;;;;;;5076425;28;20383;-81
2023/12/18 12:57:12;;;;;;;18.58;14.30;;;;;;;;;;5075862;28;20861;-81
2023/12/18 12:59:53;;;;;;;17.58;13.88;;;;;;;;;;5076452;28;20380;-81
2023/12/18 13:02:19;;;;;;;23.83;14.75;;;;;;;;;;5076572;28;20774;-81
2023/12/18 13:04:45;;;;;;;19.35;14.80;;;;;;;;;;5076228;28;20387;-81
2023/12/18 13:07:12;;;;;;;20.42;15.70;;;;;;;;;;5076527;28;20400;-80
2023/12/18 13:09:38;;;;;;;18.15;14.18;;;;;;;;;;5077229;28;20399;-81
2023/12/18 13:12:04;;;;;;;16.38;13.35;;;;;;;;;;5078061;28;20458;-80
2023/12/18 13:14:33;;;;;;;14.30;12.77;;;;;;;;;;5077281;28;21002;-80
2023/12/18 13:16:59;;;;;;;13.50;12.10;;;;;;;;;;5078035;28;20416;-81
2023/12/18 13:19:25;;;;;;;15.00;12.65;;;;;;;;;;5061470;28;20390;-80
2023/12/18 13:21:52;;;;;;;19.75;14.45;;;;;;;;;;5079406;28;20865;-80
2023/12/18 13:24:18;;;;;;;14.15;12.52;;;;;;;;;;5079332;28;20387;-80
2023/12/18 13:26:44;;;;;;;14.48;12.50;;;;;;;;;;5079040;28;20475;-80
2023/12/18 13:29:10;;;;;;;14.85;12.32;;;;;;;;;;5076364;28;20381;-81
2023/12/18 13:31:37;;;;;;;13.47;12.07;;;;;;;;;;5062103;28;20457;-81
2023/12/18 13:34:03;;;;;;;15.77;13.20;;;;;;;;;;5064168;28;20382;-81
2023/12/18 13:36:30;;;;;;;15.35;12.73;;;;;;;;;;5081902;28;20380;-81
2023/12/18 13:38:56;;;;;;;14.57;13.00;;;;;;;;;;5082220;28;20790;-81
2023/12/18 13:41:31;;;;;;;14.43;12.93;;;;;;;;;;5082150;28;20411;-81
2023/12/18 13:43:57;;;;;;;14.52;12.95;;;;;;;;;;5081874;28;20445;-81
2023/12/18 13:46:22;;;;;;;14.90;13.05;;;;;;;;;;5081484;28;20459;-81
2023/12/18 13:48:48;;;;;;;18.90;14.38;;;;;;;;;;5081498;28;20932;-81
2023/12/18 13:51:14;;;;;;;16.85;13.95;;;;;;;;;;5080179;28;20403;-81
2023/12/18 13:53:40;;;;;;;14.37;12.83;;;;;;;;;;5080043;28;20392;-81
2023/12/18 13:56:07;;;;;;;16.48;12.45;;;;;;;;;;5079861;28;20391;-81
2023/12/18 13:58:33;;;;;;;14.10;12.60;;;;;;;;;;5078534;28;20853;-81
2023/12/18 14:00:59;;;;;;;20.00;14.40;;;;;;;;;;5078933;28;20391;-81
2023/12/18 14:03:25;;;;;;;15.88;13.52;;;;;;;;;;5078033;28;20429;-81
2023/12/18 14:05:51;;;;;;;15.40;13.13;;;;;;;;;;5078279;28;20857;-81
2023/12/18 14:08:17;;;;;;;16.27;14.07;;;;;;;;;;5078794;28;20465;-81
2023/12/18 14:10:43;;;;;;;17.67;13.90;;;;;;;;;;5078885;28;20384;-81